createdAt,value
2022-07-28T00:03:12.551Z,19.46
2022-07-28T00:08:14.088Z,19.45
2022-07-28T00:13:15.569Z,19.41
2022-07-28T00:18:17.030Z,19.38
2022-07-28T00:23:18.508Z,19.33
2022-07-28T00:28:19.952Z,19.29
2022-07-28T00:33:22.018Z,19.26
2022-07-28T00:38:23.995Z,19.22
2022-07-28T00:43:25.448Z,19.20
2022-07-28T00:48:26.920Z,19.22
2022-07-28T00:53:29.440Z,19.27
2022-07-28T00:58:31.325Z,19.31
2022-07-28T01:03:34.371Z,19.29
2022-07-28T01:09:12.132Z,19.21
2022-07-28T01:14:23.837Z,19.16
2022-07-28T01:19:28.302Z,19.15
2022-07-28T01:24:41.101Z,19.17
2022-07-28T01:30:10.950Z,19.14
2022-07-28T01:35:26.281Z,19.06
2022-07-28T01:40:33.903Z,18.95
2022-07-28T01:45:38.074Z,18.85
2022-07-28T01:50:41.756Z,18.78
2022-07-28T01:55:44.773Z,18.73
2022-07-28T02:00:49.761Z,18.69
2022-07-28T02:05:54.130Z,18.64
2022-07-28T02:11:16.419Z,18.57
2022-07-28T02:16:22.291Z,18.42
2022-07-28T02:21:26.051Z,18.29
2022-07-28T02:26:32.209Z,18.20
2022-07-28T02:31:42.194Z,18.11
2022-07-28T02:36:51.005Z,18.04
2022-07-28T02:42:04.615Z,17.96
2022-07-28T02:47:10.542Z,17.84
2022-07-28T02:52:13.836Z,17.79
2022-07-28T02:57:17.517Z,17.71
2022-07-28T03:02:22.806Z,17.68
2022-07-28T03:07:28.934Z,17.58
2022-07-28T03:12:31.157Z,17.49
2022-07-28T03:17:32.660Z,17.41
2022-07-28T03:22:34.199Z,17.33
2022-07-28T03:27:39.937Z,17.27
2022-07-28T03:32:47.010Z,17.22
2022-07-28T03:38:01.747Z,17.19
2022-07-28T03:43:08.065Z,17.16
2022-07-28T03:48:09.630Z,17.12
2022-07-28T03:53:20.403Z,17.08
2022-07-28T03:58:26.335Z,17.04
2022-07-28T04:03:42.951Z,17.04
2022-07-28T04:08:45.675Z,17.08
2022-07-28T04:13:47.149Z,17.17
2022-07-28T04:18:48.666Z,17.33
2022-07-28T04:23:50.385Z,17.60
2022-07-28T04:28:51.834Z,17.81
2022-07-28T04:33:53.364Z,17.93
2022-07-28T04:38:54.916Z,17.93
2022-07-28T04:43:56.384Z,18.28
2022-07-28T04:48:57.884Z,19.81
2022-07-28T04:53:59.420Z,22.18
2022-07-28T04:59:01.679Z,23.90
2022-07-28T05:04:06.101Z,24.78
2022-07-28T05:09:08.005Z,24.94
2022-07-28T05:14:12.611Z,26.38
2022-07-28T05:19:14.873Z,27.74
2022-07-28T05:24:16.863Z,27.84
2022-07-28T05:29:18.776Z,28.64
2022-07-28T05:34:20.384Z,29.59
2022-07-28T05:39:21.897Z,30.01
2022-07-28T05:44:23.550Z,30.70
2022-07-28T05:49:25.261Z,30.44
2022-07-28T05:54:27.059Z,31.50
2022-07-28T05:59:28.517Z,32.19
2022-07-28T06:04:30.294Z,31.91
2022-07-28T06:09:32.130Z,32.43
2022-07-28T06:14:33.782Z,33.25
2022-07-28T06:19:35.284Z,32.66
2022-07-28T06:24:37.178Z,33.05
2022-07-28T06:29:38.634Z,34.36
2022-07-28T06:34:41.529Z,36.67
2022-07-28T06:39:42.988Z,37.08
2022-07-28T06:44:58.337Z,37.60
2022-07-28T06:50:01.145Z,37.83
2022-07-28T06:55:06.414Z,37.82
2022-07-28T07:00:09.200Z,36.00
2022-07-28T07:05:12.037Z,36.02
2022-07-28T07:10:13.583Z,33.45
2022-07-28T07:15:15.247Z,31.86
2022-07-28T07:20:17.240Z,33.76
2022-07-28T07:25:21.074Z,36.03
2022-07-28T07:30:22.695Z,36.97
2022-07-28T07:35:24.160Z,36.37
2022-07-28T07:40:25.598Z,32.71
2022-07-28T07:45:27.419Z,32.44
2022-07-28T07:50:29.703Z,35.34
2022-07-28T07:55:36.291Z,36.34
2022-07-28T08:00:40.849Z,36.28
2022-07-28T08:05:43.203Z,36.94
2022-07-28T08:10:44.690Z,37.42
2022-07-28T08:15:46.851Z,37.49
2022-07-28T08:20:48.437Z,37.76
2022-07-28T08:25:50.088Z,37.65
2022-07-28T08:30:51.574Z,38.56
2022-07-28T08:35:53.123Z,36.59
2022-07-28T08:40:57.106Z,37.39
2022-07-28T08:46:01.844Z,37.58
2022-07-28T08:51:09.879Z,37.50
2022-07-28T08:56:15.914Z,37.70
2022-07-28T09:01:17.778Z,35.91
2022-07-28T09:06:21.702Z,37.75
2022-07-28T09:11:28.093Z,37.88
2022-07-28T09:16:29.704Z,37.27
2022-07-28T09:21:31.432Z,38.55
2022-07-28T09:26:32.904Z,38.20
2022-07-28T09:31:34.544Z,36.55
2022-07-28T09:36:41.399Z,35.91
2022-07-28T09:41:48.389Z,35.06
2022-07-28T09:46:51.028Z,35.58
2022-07-28T09:52:03.757Z,35.23
2022-07-28T09:57:10.652Z,34.89
2022-07-28T10:02:12.816Z,34.02
2022-07-28T10:07:17.024Z,34.52
2022-07-28T10:12:24.376Z,34.30
2022-07-28T10:17:34.274Z,33.64
2022-07-28T10:22:42.821Z,32.82
2022-07-28T10:27:48.032Z,32.04
2022-07-28T10:32:50.144Z,31.39
2022-07-28T10:37:58.519Z,31.92
2022-07-28T10:43:00.264Z,31.00
2022-07-28T10:48:02.951Z,30.69
2022-07-28T10:53:07.737Z,30.23
2022-07-28T10:58:29.007Z,30.77
2022-07-28T11:03:50.886Z,31.83
2022-07-28T11:08:53.313Z,32.24
2022-07-28T11:14:26.945Z,31.50
2022-07-28T11:20:06.861Z,31.04
2022-07-28T11:25:21.199Z,30.40
2022-07-28T11:30:32.791Z,30.67
2022-07-28T11:35:40.222Z,31.10
2022-07-28T11:40:54.004Z,31.33
2022-07-28T11:46:01.579Z,31.13
2022-07-28T11:51:03.080Z,31.58
2022-07-28T11:56:15.441Z,31.58
2022-07-28T12:01:19.693Z,31.00
2022-07-28T12:06:27.316Z,31.30
2022-07-28T12:11:33.641Z,32.01
2022-07-28T12:16:37.621Z,31.89
2022-07-28T12:21:48.423Z,31.24
2022-07-28T12:26:50.938Z,31.26
2022-07-28T12:31:59.231Z,31.12
2022-07-28T12:37:03.115Z,31.14
2022-07-28T12:42:06.920Z,31.36
2022-07-28T12:47:11.948Z,31.38
2022-07-28T12:52:25.108Z,31.64
2022-07-28T12:57:44.531Z,31.72
2022-07-28T13:02:52.141Z,31.67
2022-07-28T13:08:01.988Z,31.94
2022-07-28T13:13:07.943Z,31.99
2022-07-28T13:18:09.886Z,31.68
2022-07-28T13:23:11.327Z,32.07
2022-07-28T13:28:26.312Z,31.85
2022-07-28T13:33:28.484Z,31.88
2022-07-28T13:38:30.158Z,31.92
2022-07-28T13:43:35.835Z,31.59
2022-07-28T13:48:57.334Z,31.40
2022-07-28T13:54:00.655Z,31.32
2022-07-28T13:59:02.114Z,31.30
2022-07-28T14:04:04.504Z,31.55
2022-07-28T14:09:06.940Z,31.55
2022-07-28T14:14:08.463Z,31.22
2022-07-28T14:19:16.349Z,30.91
2022-07-28T14:24:24.718Z,31.14
2022-07-28T14:29:27.701Z,31.16
2022-07-28T14:34:29.359Z,31.18
2022-07-28T14:39:30.859Z,31.17
2022-07-28T14:44:32.318Z,31.44
2022-07-28T14:49:35.091Z,31.53
2022-07-28T14:54:36.591Z,31.32
2022-07-28T14:59:38.032Z,31.16
2022-07-28T15:04:40.283Z,31.00
2022-07-28T15:09:43.468Z,31.24
2022-07-28T15:14:46.600Z,31.16
2022-07-28T15:19:48.128Z,30.92
2022-07-28T15:24:49.879Z,30.72
2022-07-28T15:29:52.340Z,30.60
2022-07-28T15:34:54.129Z,30.64
2022-07-28T15:39:55.863Z,30.79
2022-07-28T15:45:01.044Z,31.04
2022-07-28T15:50:03.007Z,30.96
2022-07-28T15:55:05.003Z,30.74
2022-07-28T16:00:07.330Z,30.64
2022-07-28T16:05:08.963Z,30.50
2022-07-28T16:10:10.610Z,30.47
2022-07-28T16:15:12.879Z,30.52
2022-07-28T16:20:14.366Z,30.76
2022-07-28T16:25:20.992Z,30.74
2022-07-28T16:30:22.487Z,30.85
2022-07-28T16:35:24.632Z,30.74
2022-07-28T16:40:26.277Z,30.68
2022-07-28T16:45:30.714Z,30.68
2022-07-28T16:50:33.075Z,30.52
2022-07-28T16:55:34.626Z,30.28
2022-07-28T17:00:36.258Z,30.24
2022-07-28T17:05:37.917Z,30.33
2022-07-28T17:10:39.471Z,30.47
2022-07-28T17:15:41.095Z,30.52
2022-07-28T17:20:42.657Z,30.31
2022-07-28T17:26:35.226Z,30.12
2022-07-28T17:31:05.616Z,30.01
2022-07-28T17:36:07.451Z,30.06
2022-07-28T17:41:09.449Z,30.01
2022-07-28T17:46:11.272Z,29.98
2022-07-28T17:51:14.251Z,29.92
2022-07-28T17:56:15.788Z,29.91
2022-07-28T18:01:17.830Z,29.81
2022-07-28T18:06:19.321Z,29.71
2022-07-28T18:11:21.377Z,29.66
2022-07-28T18:16:22.948Z,29.57
2022-07-28T18:21:26.489Z,29.41
2022-07-28T18:26:28.058Z,29.26
2022-07-28T18:31:29.674Z,29.14
2022-07-28T18:36:31.799Z,29.00
2022-07-28T18:41:46.652Z,28.83
2022-07-28T18:46:49.307Z,28.67
2022-07-28T18:51:52.003Z,28.55
2022-07-28T18:56:53.438Z,28.44
2022-07-28T19:01:55.099Z,28.31
2022-07-28T19:06:56.638Z,28.17
2022-07-28T19:11:58.206Z,28.00
2022-07-28T19:17:01.841Z,27.81
2022-07-28T19:22:06.435Z,27.59
2022-07-28T19:27:09.136Z,27.40
2022-07-28T19:32:10.631Z,27.25
2022-07-28T19:37:15.771Z,27.17
2022-07-28T19:42:18.954Z,27.09
2022-07-28T19:47:20.410Z,26.95
2022-07-28T19:52:24.001Z,26.80
2022-07-28T19:57:25.832Z,26.63
2022-07-28T20:02:27.770Z,26.42
2022-07-28T20:07:29.285Z,26.24
2022-07-28T20:12:36.110Z,26.16
2022-07-28T20:17:39.723Z,26.03
2022-07-28T20:22:41.779Z,25.87
2022-07-28T20:27:43.457Z,25.74
2022-07-28T20:32:44.977Z,25.62
2022-07-28T20:37:46.441Z,25.49
2022-07-28T20:42:52.805Z,25.43
2022-07-28T20:47:54.684Z,25.41
2022-07-28T20:52:56.270Z,25.37
2022-07-28T20:57:57.823Z,25.27
2022-07-28T21:02:59.334Z,25.14
2022-07-28T21:08:04.649Z,25.07
2022-07-28T21:13:08.423Z,24.98
2022-07-28T21:18:10.677Z,24.93
2022-07-28T21:23:12.507Z,24.98
2022-07-28T21:28:32.956Z,25.03
2022-07-28T21:33:34.530Z,25.06
2022-07-28T21:38:36.043Z,25.09
2022-07-28T21:43:37.709Z,25.02
2022-07-28T21:48:39.674Z,24.89
2022-07-28T21:53:42.139Z,24.76
2022-07-28T21:58:44.376Z,24.66
2022-07-28T22:03:45.843Z,24.53
2022-07-28T22:08:50.350Z,24.37
2022-07-28T22:13:51.827Z,24.28
2022-07-28T22:18:53.271Z,24.21
2022-07-28T22:23:54.826Z,24.16
2022-07-28T22:28:56.306Z,24.09
2022-07-28T22:33:57.778Z,24.02
2022-07-28T22:38:59.292Z,24.00
2022-07-28T22:44:00.869Z,24.02
2022-07-28T22:49:02.412Z,24.30
2022-07-28T22:54:04.121Z,24.47
2022-07-28T22:59:05.901Z,24.50
2022-07-28T23:04:07.579Z,24.41
2022-07-28T23:09:09.247Z,24.23
2022-07-28T23:14:10.675Z,24.12
2022-07-28T23:19:12.430Z,23.96
2022-07-28T23:24:14.197Z,23.83
2022-07-28T23:29:15.893Z,23.70
2022-07-28T23:34:17.664Z,23.57
2022-07-28T23:39:19.370Z,23.36
2022-07-28T23:44:20.801Z,23.13
2022-07-28T23:49:22.520Z,22.96
2022-07-28T23:54:24.073Z,22.89
2022-07-28T23:59:25.545Z,22.83
